sensor_id;sensor_type;location;lat;lon;timestamp;P1;durP1;ratioP1;P2;durP2;ratioP2
5199;SDS011;2619;47.868;11.892;2023-05-27T00:00:02;13.60;;;9.90;;
5199;SDS011;2619;47.868;11.892;2023-05-27T00:02:29;16.17;;;9.97;;
5199;SDS011;2619;47.868;11.892;2023-05-27T00:04:55;14.93;;;9.97;;
5199;SDS011;2619;47.868;11.892;2023-05-27T00:07:21;17.40;;;10.07;;
5199;SDS011;2619;47.868;11.892;2023-05-27T00:09:47;12.87;;;9.47;;
5199;SDS011;2619;47.868;11.892;2023-05-27T00:12:12;15.23;;;9.40;;
5199;SDS011;2619;47.868;11.892;2023-05-27T00:14:38;14.20;;;9.50;;
5199;SDS011;2619;47.868;11.892;2023-05-27T00:17:03;13.97;;;10.30;;
5199;SDS011;2619;47.868;11.892;2023-05-27T00:19:32;14.00;;;9.53;;
5199;SDS011;2619;47.868;11.892;2023-05-27T00:21:58;14.80;;;10.80;;
5199;SDS011;2619;47.868;11.892;2023-05-27T00:24:23;16.00;;;11.00;;
5199;SDS011;2619;47.868;11.892;2023-05-27T00:26:50;14.90;;;10.80;;
5199;SDS011;2619;47.868;11.892;2023-05-27T00:29:15;18.73;;;12.87;;
5199;SDS011;2619;47.868;11.892;2023-05-27T00:31:42;24.27;;;16.37;;
5199;SDS011;2619;47.868;11.892;2023-05-27T00:34:07;15.13;;;11.83;;
5199;SDS011;2619;47.868;11.892;2023-05-27T00:36:33;21.87;;;11.60;;
5199;SDS011;2619;47.868;11.892;2023-05-27T00:38:59;15.83;;;10.90;;
5199;SDS011;2619;47.868;11.892;2023-05-27T00:41:25;14.03;;;11.00;;
5199;SDS011;2619;47.868;11.892;2023-05-27T00:43:52;15.33;;;10.30;;
5199;SDS011;2619;47.868;11.892;2023-05-27T00:46:18;14.10;;;10.30;;
5199;SDS011;2619;47.868;11.892;2023-05-27T00:48:44;14.50;;;10.30;;
5199;SDS011;2619;47.868;11.892;2023-05-27T00:51:11;13.73;;;10.43;;
5199;SDS011;2619;47.868;11.892;2023-05-27T00:53:38;14.47;;;10.97;;
5199;SDS011;2619;47.868;11.892;2023-05-27T00:56:06;20.67;;;12.67;;
5199;SDS011;2619;47.868;11.892;2023-05-27T00:58:33;16.33;;;11.27;;
5199;SDS011;2619;47.868;11.892;2023-05-27T01:01:00;18.20;;;10.23;;
5199;SDS011;2619;47.868;11.892;2023-05-27T01:03:27;14.23;;;10.83;;
5199;SDS011;2619;47.868;11.892;2023-05-27T01:05:59;13.80;;;10.83;;
5199;SDS011;2619;47.868;11.892;2023-05-27T01:08:45;17.80;;;12.13;;
5199;SDS011;2619;47.868;11.892;2023-05-27T01:11:23;19.20;;;11.03;;
5199;SDS011;2619;47.868;11.892;2023-05-27T01:14:00;14.50;;;10.80;;
5199;SDS011;2619;47.868;11.892;2023-05-27T01:16:40;14.60;;;10.80;;
5199;SDS011;2619;47.868;11.892;2023-05-27T01:19:12;14.20;;;11.03;;
5199;SDS011;2619;47.868;11.892;2023-05-27T01:21:39;16.60;;;12.53;;
5199;SDS011;2619;47.868;11.892;2023-05-27T01:24:09;15.90;;;11.83;;
5199;SDS011;2619;47.868;11.892;2023-05-27T01:26:36;18.43;;;11.57;;
5199;SDS011;2619;47.868;11.892;2023-05-27T01:29:02;17.20;;;12.57;;
5199;SDS011;2619;47.868;11.892;2023-05-27T01:31:31;16.33;;;12.10;;
5199;SDS011;2619;47.868;11.892;2023-05-27T01:34:08;17.60;;;11.70;;
5199;SDS011;2619;47.868;11.892;2023-05-27T01:36:39;15.67;;;11.17;;
5199;SDS011;2619;47.868;11.892;2023-05-27T01:39:10;18.17;;;12.93;;
5199;SDS011;2619;47.868;11.892;2023-05-27T01:41:37;17.67;;;12.10;;
5199;SDS011;2619;47.868;11.892;2023-05-27T01:44:04;16.30;;;12.50;;
5199;SDS011;2619;47.868;11.892;2023-05-27T01:46:30;16.80;;;12.30;;
5199;SDS011;2619;47.868;11.892;2023-05-27T01:48:56;15.33;;;12.40;;
5199;SDS011;2619;47.868;11.892;2023-05-27T01:51:21;18.03;;;12.50;;
5199;SDS011;2619;47.868;11.892;2023-05-27T01:53:47;17.33;;;12.53;;
5199;SDS011;2619;47.868;11.892;2023-05-27T01:56:13;14.73;;;12.00;;
5199;SDS011;2619;47.868;11.892;2023-05-27T01:58:38;17.00;;;13.20;;
5199;SDS011;2619;47.868;11.892;2023-05-27T02:01:04;14.43;;;11.63;;
5199;SDS011;2619;47.868;11.892;2023-05-27T02:03:30;20.07;;;13.80;;
5199;SDS011;2619;47.868;11.892;2023-05-27T02:05:56;17.27;;;12.93;;
5199;SDS011;2619;47.868;11.892;2023-05-27T02:08:21;21.63;;;12.40;;
5199;SDS011;2619;47.868;11.892;2023-05-27T02:10:47;18.57;;;12.70;;
5199;SDS011;2619;47.868;11.892;2023-05-27T02:13:13;19.23;;;12.27;;
5199;SDS011;2619;47.868;11.892;2023-05-27T02:15:39;15.60;;;12.70;;
5199;SDS011;2619;47.868;11.892;2023-05-27T02:18:05;16.77;;;12.77;;
5199;SDS011;2619;47.868;11.892;2023-05-27T02:20:31;16.30;;;12.10;;
5199;SDS011;2619;47.868;11.892;2023-05-27T02:22:56;13.70;;;11.67;;
5199;SDS011;2619;47.868;11.892;2023-05-27T02:25:22;25.40;;;13.97;;
5199;SDS011;2619;47.868;11.892;2023-05-27T02:27:48;21.70;;;14.60;;
5199;SDS011;2619;47.868;11.892;2023-05-27T02:30:14;17.60;;;13.63;;
5199;SDS011;2619;47.868;11.892;2023-05-27T02:32:40;15.23;;;12.57;;
5199;SDS011;2619;47.868;11.892;2023-05-27T02:35:07;17.40;;;13.40;;
5199;SDS011;2619;47.868;11.892;2023-05-27T02:37:33;19.27;;;12.87;;
5199;SDS011;2619;47.868;11.892;2023-05-27T02:39:59;18.23;;;13.10;;
5199;SDS011;2619;47.868;11.892;2023-05-27T02:42:25;19.03;;;13.23;;
5199;SDS011;2619;47.868;11.892;2023-05-27T02:44:50;18.13;;;12.30;;
5199;SDS011;2619;47.868;11.892;2023-05-27T02:47:16;17.40;;;13.07;;
5199;SDS011;2619;47.868;11.892;2023-05-27T02:49:41;17.00;;;13.83;;
5199;SDS011;2619;47.868;11.892;2023-05-27T02:52:07;19.33;;;13.00;;
5199;SDS011;2619;47.868;11.892;2023-05-27T02:54:33;15.20;;;12.40;;
5199;SDS011;2619;47.868;11.892;2023-05-27T02:56:58;20.80;;;13.53;;
5199;SDS011;2619;47.868;11.892;2023-05-27T02:59:24;19.13;;;12.93;;
5199;SDS011;2619;47.868;11.892;2023-05-27T03:01:50;23.80;;;12.47;;
5199;SDS011;2619;47.868;11.892;2023-05-27T03:04:15;19.47;;;13.20;;
5199;SDS011;2619;47.868;11.892;2023-05-27T03:06:41;19.10;;;13.13;;
5199;SDS011;2619;47.868;11.892;2023-05-27T03:09:07;24.70;;;14.17;;
5199;SDS011;2619;47.868;11.892;2023-05-27T03:11:33;18.10;;;12.87;;
5199;SDS011;2619;47.868;11.892;2023-05-27T03:13:58;18.77;;;13.60;;
5199;SDS011;2619;47.868;11.892;2023-05-27T03:16:24;18.53;;;12.97;;
5199;SDS011;2619;47.868;11.892;2023-05-27T03:18:50;15.10;;;12.37;;
5199;SDS011;2619;47.868;11.892;2023-05-27T03:21:16;19.33;;;13.80;;
5199;SDS011;2619;47.868;11.892;2023-05-27T03:23:41;18.83;;;14.73;;
5199;SDS011;2619;47.868;11.892;2023-05-27T03:26:07;17.97;;;13.40;;
5199;SDS011;2619;47.868;11.892;2023-05-27T03:28:32;18.80;;;13.40;;
5199;SDS011;2619;47.868;11.892;2023-05-27T03:30:58;23.03;;;14.67;;
5199;SDS011;2619;47.868;11.892;2023-05-27T03:33:23;23.67;;;14.17;;
5199;SDS011;2619;47.868;11.892;2023-05-27T03:35:49;19.37;;;14.60;;
5199;SDS011;2619;47.868;11.892;2023-05-27T03:38:15;18.73;;;13.63;;
5199;SDS011;2619;47.868;11.892;2023-05-27T03:40:41;19.97;;;13.60;;
5199;SDS011;2619;47.868;11.892;2023-05-27T03:43:06;22.73;;;13.70;;
5199;SDS011;2619;47.868;11.892;2023-05-27T03:45:32;17.13;;;13.00;;
5199;SDS011;2619;47.868;11.892;2023-05-27T03:47:58;17.80;;;13.30;;
5199;SDS011;2619;47.868;11.892;2023-05-27T03:50:23;18.80;;;13.70;;
5199;SDS011;2619;47.868;11.892;2023-05-27T03:52:49;15.80;;;12.17;;
5199;SDS011;2619;47.868;11.892;2023-05-27T03:55:15;22.80;;;12.83;;
5199;SDS011;2619;47.868;11.892;2023-05-27T03:57:46;18.67;;;12.93;;
5199;SDS011;2619;47.868;11.892;2023-05-27T04:00:12;19.50;;;13.07;;
5199;SDS011;2619;47.868;11.892;2023-05-27T04:02:38;17.67;;;13.63;;
5199;SDS011;2619;47.868;11.892;2023-05-27T04:05:05;21.03;;;12.90;;
5199;SDS011;2619;47.868;11.892;2023-05-27T04:07:30;20.90;;;13.87;;
5199;SDS011;2619;47.868;11.892;2023-05-27T04:09:56;20.57;;;14.20;;
5199;SDS011;2619;47.868;11.892;2023-05-27T04:12:22;22.00;;;13.30;;
5199;SDS011;2619;47.868;11.892;2023-05-27T04:14:48;15.07;;;12.30;;
5199;SDS011;2619;47.868;11.892;2023-05-27T04:17:14;15.47;;;12.60;;
5199;SDS011;2619;47.868;11.892;2023-05-27T04:19:39;14.83;;;12.50;;
5199;SDS011;2619;47.868;11.892;2023-05-27T04:22:05;20.60;;;13.37;;
5199;SDS011;2619;47.868;11.892;2023-05-27T04:24:31;17.83;;;12.73;;
5199;SDS011;2619;47.868;11.892;2023-05-27T04:26:56;16.73;;;12.00;;
5199;SDS011;2619;47.868;11.892;2023-05-27T04:29:22;17.57;;;12.30;;
5199;SDS011;2619;47.868;11.892;2023-05-27T04:31:48;13.43;;;10.13;;
5199;SDS011;2619;47.868;11.892;2023-05-27T04:34:13;14.60;;;9.27;;
5199;SDS011;2619;47.868;11.892;2023-05-27T04:36:39;16.93;;;9.30;;
5199;SDS011;2619;47.868;11.892;2023-05-27T04:39:05;12.33;;;9.23;;
5199;SDS011;2619;47.868;11.892;2023-05-27T04:41:31;10.70;;;8.67;;
5199;SDS011;2619;47.868;11.892;2023-05-27T04:43:57;11.20;;;8.63;;
5199;SDS011;2619;47.868;11.892;2023-05-27T04:46:25;11.77;;;8.53;;
5199;SDS011;2619;47.868;11.892;2023-05-27T04:48:52;11.50;;;8.43;;
5199;SDS011;2619;47.868;11.892;2023-05-27T04:51:18;9.83;;;8.83;;
5199;SDS011;2619;47.868;11.892;2023-05-27T04:53:44;11.40;;;9.37;;
5199;SDS011;2619;47.868;11.892;2023-05-27T04:56:12;11.03;;;9.20;;
5199;SDS011;2619;47.868;11.892;2023-05-27T04:58:40;11.80;;;8.70;;
5199;SDS011;2619;47.868;11.892;2023-05-27T05:01:08;13.10;;;8.33;;
5199;SDS011;2619;47.868;11.892;2023-05-27T05:03:41;10.57;;;9.33;;
5199;SDS011;2619;47.868;11.892;2023-05-27T05:06:17;12.87;;;9.20;;
5199;SDS011;2619;47.868;11.892;2023-05-27T05:08:47;11.23;;;8.57;;
5199;SDS011;2619;47.868;11.892;2023-05-27T05:11:13;10.70;;;8.53;;
5199;SDS011;2619;47.868;11.892;2023-05-27T05:13:39;11.87;;;7.90;;
5199;SDS011;2619;47.868;11.892;2023-05-27T05:16:05;10.50;;;8.07;;
5199;SDS011;2619;47.868;11.892;2023-05-27T05:18:31;13.57;;;9.23;;
5199;SDS011;2619;47.868;11.892;2023-05-27T05:20:56;12.60;;;7.93;;
5199;SDS011;2619;47.868;11.892;2023-05-27T05:23:22;10.60;;;9.00;;
5199;SDS011;2619;47.868;11.892;2023-05-27T05:25:47;10.50;;;8.50;;
5199;SDS011;2619;47.868;11.892;2023-05-27T05:28:19;11.90;;;8.97;;
5199;SDS011;2619;47.868;11.892;2023-05-27T05:30:45;11.37;;;8.53;;
5199;SDS011;2619;47.868;11.892;2023-05-27T05:33:11;12.40;;;8.97;;
5199;SDS011;2619;47.868;11.892;2023-05-27T05:35:37;10.23;;;7.50;;
5199;SDS011;2619;47.868;11.892;2023-05-27T05:38:02;12.03;;;7.47;;
5199;SDS011;2619;47.868;11.892;2023-05-27T05:40:28;11.77;;;8.17;;
5199;SDS011;2619;47.868;11.892;2023-05-27T05:42:53;11.40;;;8.40;;
5199;SDS011;2619;47.868;11.892;2023-05-27T05:45:19;11.70;;;8.00;;
5199;SDS011;2619;47.868;11.892;2023-05-27T05:47:45;8.00;;;7.20;;
5199;SDS011;2619;47.868;11.892;2023-05-27T05:50:10;11.50;;;8.30;;
5199;SDS011;2619;47.868;11.892;2023-05-27T05:52:36;13.93;;;8.83;;
5199;SDS011;2619;47.868;11.892;2023-05-27T05:55:01;12.20;;;8.97;;
5199;SDS011;2619;47.868;11.892;2023-05-27T05:57:28;11.00;;;7.40;;
5199;SDS011;2619;47.868;11.892;2023-05-27T05:59:56;10.60;;;7.63;;
5199;SDS011;2619;47.868;11.892;2023-05-27T06:02:22;11.07;;;7.43;;
5199;SDS011;2619;47.868;11.892;2023-05-27T06:04:48;12.43;;;7.77;;
5199;SDS011;2619;47.868;11.892;2023-05-27T06:07:13;10.87;;;7.50;;
5199;SDS011;2619;47.868;11.892;2023-05-27T06:09:39;10.20;;;7.87;;
5199;SDS011;2619;47.868;11.892;2023-05-27T06:12:04;8.70;;;7.07;;
5199;SDS011;2619;47.868;11.892;2023-05-27T06:14:31;9.60;;;7.80;;
5199;SDS011;2619;47.868;11.892;2023-05-27T06:16:57;9.60;;;7.50;;
5199;SDS011;2619;47.868;11.892;2023-05-27T06:19:22;9.60;;;7.00;;
5199;SDS011;2619;47.868;11.892;2023-05-27T06:21:48;9.43;;;7.20;;
5199;SDS011;2619;47.868;11.892;2023-05-27T06:24:13;9.73;;;7.40;;
5199;SDS011;2619;47.868;11.892;2023-05-27T06:26:40;10.20;;;6.83;;
5199;SDS011;2619;47.868;11.892;2023-05-27T06:29:05;10.60;;;7.47;;
5199;SDS011;2619;47.868;11.892;2023-05-27T06:31:31;10.50;;;6.73;;
5199;SDS011;2619;47.868;11.892;2023-05-27T06:33:58;14.73;;;7.53;;
5199;SDS011;2619;47.868;11.892;2023-05-27T06:36:24;10.00;;;7.40;;
5199;SDS011;2619;47.868;11.892;2023-05-27T06:38:49;10.23;;;7.60;;
5199;SDS011;2619;47.868;11.892;2023-05-27T06:41:15;7.97;;;7.17;;
5199;SDS011;2619;47.868;11.892;2023-05-27T06:43:41;10.50;;;7.00;;
5199;SDS011;2619;47.868;11.892;2023-05-27T06:46:07;8.77;;;6.63;;
5199;SDS011;2619;47.868;11.892;2023-05-27T06:48:33;13.07;;;7.47;;
5199;SDS011;2619;47.868;11.892;2023-05-27T06:50:59;10.77;;;7.57;;
5199;SDS011;2619;47.868;11.892;2023-05-27T06:53:24;10.90;;;7.90;;
5199;SDS011;2619;47.868;11.892;2023-05-27T06:55:50;13.00;;;8.30;;
5199;SDS011;2619;47.868;11.892;2023-05-27T06:58:16;12.30;;;8.20;;
5199;SDS011;2619;47.868;11.892;2023-05-27T07:00:41;11.47;;;8.00;;
5199;SDS011;2619;47.868;11.892;2023-05-27T07:03:07;9.43;;;8.00;;
5199;SDS011;2619;47.868;11.892;2023-05-27T07:05:33;10.50;;;6.63;;
5199;SDS011;2619;47.868;11.892;2023-05-27T07:07:58;8.70;;;7.60;;
5199;SDS011;2619;47.868;11.892;2023-05-27T07:10:24;10.73;;;7.43;;
5199;SDS011;2619;47.868;11.892;2023-05-27T07:12:49;9.57;;;7.10;;
5199;SDS011;2619;47.868;11.892;2023-05-27T07:15:15;14.17;;;7.03;;
5199;SDS011;2619;47.868;11.892;2023-05-27T07:17:41;13.07;;;8.07;;
5199;SDS011;2619;47.868;11.892;2023-05-27T07:20:06;12.73;;;8.00;;
5199;SDS011;2619;47.868;11.892;2023-05-27T07:22:33;12.70;;;8.50;;
5199;SDS011;2619;47.868;11.892;2023-05-27T07:24:58;11.63;;;8.90;;
5199;SDS011;2619;47.868;11.892;2023-05-27T07:27:24;11.90;;;7.80;;
5199;SDS011;2619;47.868;11.892;2023-05-27T07:29:49;10.20;;;7.67;;
5199;SDS011;2619;47.868;11.892;2023-05-27T07:32:15;11.23;;;7.67;;
5199;SDS011;2619;47.868;11.892;2023-05-27T07:34:41;10.53;;;7.80;;
5199;SDS011;2619;47.868;11.892;2023-05-27T07:37:06;11.57;;;8.60;;
5199;SDS011;2619;47.868;11.892;2023-05-27T07:39:32;13.13;;;9.53;;
5199;SDS011;2619;47.868;11.892;2023-05-27T07:41:58;17.17;;;9.80;;
5199;SDS011;2619;47.868;11.892;2023-05-27T07:44:23;12.93;;;8.07;;
5199;SDS011;2619;47.868;11.892;2023-05-27T07:46:49;10.70;;;7.60;;
5199;SDS011;2619;47.868;11.892;2023-05-27T07:49:15;11.70;;;8.80;;
5199;SDS011;2619;47.868;11.892;2023-05-27T07:51:40;10.10;;;8.10;;
5199;SDS011;2619;47.868;11.892;2023-05-27T07:54:06;12.50;;;8.70;;
5199;SDS011;2619;47.868;11.892;2023-05-27T07:56:31;12.53;;;7.70;;
5199;SDS011;2619;47.868;11.892;2023-05-27T07:58:59;11.63;;;7.90;;
5199;SDS011;2619;47.868;11.892;2023-05-27T08:01:25;14.10;;;8.77;;
5199;SDS011;2619;47.868;11.892;2023-05-27T08:03:55;11.80;;;8.00;;
5199;SDS011;2619;47.868;11.892;2023-05-27T08:06:21;12.97;;;7.50;;
5199;SDS011;2619;47.868;11.892;2023-05-27T08:08:46;8.90;;;7.60;;
5199;SDS011;2619;47.868;11.892;2023-05-27T08:11:13;12.20;;;8.07;;
5199;SDS011;2619;47.868;11.892;2023-05-27T08:13:38;9.40;;;8.30;;
5199;SDS011;2619;47.868;11.892;2023-05-27T08:16:04;15.33;;;9.10;;
5199;SDS011;2619;47.868;11.892;2023-05-27T08:18:29;10.50;;;7.27;;
5199;SDS011;2619;47.868;11.892;2023-05-27T08:20:55;12.60;;;8.90;;
5199;SDS011;2619;47.868;11.892;2023-05-27T08:23:20;11.87;;;8.00;;
5199;SDS011;2619;47.868;11.892;2023-05-27T08:25:46;9.90;;;7.10;;
5199;SDS011;2619;47.868;11.892;2023-05-27T08:28:12;8.93;;;7.20;;
5199;SDS011;2619;47.868;11.892;2023-05-27T08:30:37;9.67;;;8.37;;
5199;SDS011;2619;47.868;11.892;2023-05-27T08:33:03;12.83;;;7.63;;
5199;SDS011;2619;47.868;11.892;2023-05-27T08:35:28;20.17;;;7.93;;
5199;SDS011;2619;47.868;11.892;2023-05-27T08:37:54;10.17;;;8.03;;
5199;SDS011;2619;47.868;11.892;2023-05-27T08:40:20;10.17;;;7.73;;
5199;SDS011;2619;47.868;11.892;2023-05-27T08:42:46;12.33;;;8.60;;
5199;SDS011;2619;47.868;11.892;2023-05-27T08:45:12;12.40;;;9.17;;
5199;SDS011;2619;47.868;11.892;2023-05-27T08:47:38;14.40;;;9.20;;
5199;SDS011;2619;47.868;11.892;2023-05-27T08:50:05;10.23;;;7.93;;
5199;SDS011;2619;47.868;11.892;2023-05-27T08:52:32;11.23;;;8.60;;
5199;SDS011;2619;47.868;11.892;2023-05-27T08:54:57;14.97;;;8.37;;
5199;SDS011;2619;47.868;11.892;2023-05-27T08:57:31;9.10;;;7.37;;
5199;SDS011;2619;47.868;11.892;2023-05-27T08:59:57;12.60;;;8.27;;
5199;SDS011;2619;47.868;11.892;2023-05-27T09:02:23;14.33;;;8.17;;
5199;SDS011;2619;47.868;11.892;2023-05-27T09:04:50;10.97;;;8.50;;
5199;SDS011;2619;47.868;11.892;2023-05-27T09:07:16;10.07;;;8.73;;
5199;SDS011;2619;47.868;11.892;2023-05-27T09:09:53;16.90;;;9.80;;
5199;SDS011;2619;47.868;11.892;2023-05-27T09:12:22;11.80;;;9.27;;
5199;SDS011;2619;47.868;11.892;2023-05-27T09:14:50;104.33;;;40.07;;
5199;SDS011;2619;47.868;11.892;2023-05-27T09:17:16;50.30;;;22.65;;
5199;SDS011;2619;47.868;11.892;2023-05-27T09:19:41;10.73;;;8.23;;
5199;SDS011;2619;47.868;11.892;2023-05-27T09:22:09;10.10;;;8.47;;
5199;SDS011;2619;47.868;11.892;2023-05-27T09:24:34;10.70;;;8.10;;
5199;SDS011;2619;47.868;11.892;2023-05-27T09:27:00;9.17;;;7.23;;
5199;SDS011;2619;47.868;11.892;2023-05-27T09:29:26;13.73;;;10.30;;
5199;SDS011;2619;47.868;11.892;2023-05-27T09:31:55;15.33;;;7.93;;
5199;SDS011;2619;47.868;11.892;2023-05-27T09:34:21;12.07;;;8.30;;
5199;SDS011;2619;47.868;11.892;2023-05-27T09:36:50;12.23;;;7.87;;
5199;SDS011;2619;47.868;11.892;2023-05-27T09:39:17;10.63;;;8.07;;
5199;SDS011;2619;47.868;11.892;2023-05-27T09:41:49;12.67;;;8.30;;
5199;SDS011;2619;47.868;11.892;2023-05-27T09:44:18;10.97;;;7.40;;
5199;SDS011;2619;47.868;11.892;2023-05-27T09:46:44;12.70;;;8.00;;
5199;SDS011;2619;47.868;11.892;2023-05-27T09:49:12;12.07;;;7.10;;
5199;SDS011;2619;47.868;11.892;2023-05-27T09:51:40;11.70;;;8.10;;
5199;SDS011;2619;47.868;11.892;2023-05-27T09:54:06;11.00;;;8.17;;
5199;SDS011;2619;47.868;11.892;2023-05-27T09:56:34;10.83;;;7.90;;
5199;SDS011;2619;47.868;11.892;2023-05-27T09:59:00;10.00;;;8.33;;
5199;SDS011;2619;47.868;11.892;2023-05-27T10:01:26;12.80;;;7.70;;
5199;SDS011;2619;47.868;11.892;2023-05-27T10:03:54;8.77;;;7.07;;
5199;SDS011;2619;47.868;11.892;2023-05-27T10:06:20;9.00;;;7.20;;
5199;SDS011;2619;47.868;11.892;2023-05-27T10:08:49;10.70;;;8.50;;
5199;SDS011;2619;47.868;11.892;2023-05-27T10:11:17;9.97;;;7.27;;
5199;SDS011;2619;47.868;11.892;2023-05-27T10:13:44;10.20;;;7.60;;
5199;SDS011;2619;47.868;11.892;2023-05-27T10:16:19;13.30;;;8.17;;
5199;SDS011;2619;47.868;11.892;2023-05-27T10:18:46;12.33;;;8.23;;
5199;SDS011;2619;47.868;11.892;2023-05-27T10:21:20;12.00;;;8.20;;
5199;SDS011;2619;47.868;11.892;2023-05-27T10:23:57;8.37;;;7.43;;
5199;SDS011;2619;47.868;11.892;2023-05-27T10:31:33;10.00;;;8.40;;
5199;SDS011;2619;47.868;11.892;2023-05-27T10:34:03;10.23;;;7.23;;
5199;SDS011;2619;47.868;11.892;2023-05-27T10:36:30;10.20;;;7.03;;
5199;SDS011;2619;47.868;11.892;2023-05-27T10:39:14;8.47;;;6.87;;
5199;SDS011;2619;47.868;11.892;2023-05-27T10:41:51;11.67;;;7.77;;
5199;SDS011;2619;47.868;11.892;2023-05-27T10:44:27;10.73;;;6.97;;
5199;SDS011;2619;47.868;11.892;2023-05-27T10:47:01;9.10;;;7.47;;
5199;SDS011;2619;47.868;11.892;2023-05-27T10:49:27;8.90;;;7.47;;
5199;SDS011;2619;47.868;11.892;2023-05-27T10:51:58;9.90;;;7.40;;
5199;SDS011;2619;47.868;11.892;2023-05-27T10:54:29;10.87;;;7.83;;
5199;SDS011;2619;47.868;11.892;2023-05-27T10:56:58;9.50;;;7.57;;
5199;SDS011;2619;47.868;11.892;2023-05-27T10:59:24;10.50;;;7.07;;
5199;SDS011;2619;47.868;11.892;2023-05-27T11:01:59;9.00;;;6.70;;
5199;SDS011;2619;47.868;11.892;2023-05-27T11:04:24;13.07;;;6.90;;
5199;SDS011;2619;47.868;11.892;2023-05-27T11:06:56;8.20;;;6.40;;
5199;SDS011;2619;47.868;11.892;2023-05-27T11:09:23;8.37;;;7.33;;
5199;SDS011;2619;47.868;11.892;2023-05-27T11:11:49;10.30;;;6.43;;
5199;SDS011;2619;47.868;11.892;2023-05-27T11:14:15;9.70;;;6.60;;
5199;SDS011;2619;47.868;11.892;2023-05-27T11:16:45;9.83;;;6.93;;
5199;SDS011;2619;47.868;11.892;2023-05-27T11:19:16;10.50;;;7.43;;
5199;SDS011;2619;47.868;11.892;2023-05-27T11:21:48;7.37;;;6.17;;
5199;SDS011;2619;47.868;11.892;2023-05-27T11:24:15;8.93;;;6.60;;
5199;SDS011;2619;47.868;11.892;2023-05-27T11:26:44;7.73;;;6.30;;
5199;SDS011;2619;47.868;11.892;2023-05-27T11:29:11;10.43;;;6.60;;
5199;SDS011;2619;47.868;11.892;2023-05-27T11:31:40;7.67;;;6.40;;
5199;SDS011;2619;47.868;11.892;2023-05-27T11:34:14;11.70;;;8.00;;
5199;SDS011;2619;47.868;11.892;2023-05-27T11:36:41;10.90;;;7.57;;
5199;SDS011;2619;47.868;11.892;2023-05-27T11:39:12;10.50;;;8.20;;
5199;SDS011;2619;47.868;11.892;2023-05-27T11:41:47;11.13;;;7.60;;
5199;SDS011;2619;47.868;11.892;2023-05-27T11:44:20;8.37;;;7.10;;
5199;SDS011;2619;47.868;11.892;2023-05-27T11:46:47;9.20;;;6.80;;
5199;SDS011;2619;47.868;11.892;2023-05-27T11:49:14;9.07;;;6.00;;
5199;SDS011;2619;47.868;11.892;2023-05-27T11:51:45;10.50;;;7.30;;
5199;SDS011;2619;47.868;11.892;2023-05-27T11:54:30;8.63;;;7.30;;
5199;SDS011;2619;47.868;11.892;2023-05-27T11:56:56;12.10;;;7.10;;
5199;SDS011;2619;47.868;11.892;2023-05-27T11:59:24;10.63;;;6.50;;
5199;SDS011;2619;47.868;11.892;2023-05-27T12:01:51;9.37;;;6.80;;
5199;SDS011;2619;47.868;11.892;2023-05-27T12:04:19;8.80;;;5.90;;
5199;SDS011;2619;47.868;11.892;2023-05-27T12:06:45;9.40;;;6.10;;
5199;SDS011;2619;47.868;11.892;2023-05-27T12:09:11;7.20;;;6.10;;
5199;SDS011;2619;47.868;11.892;2023-05-27T12:11:37;6.87;;;6.03;;
5199;SDS011;2619;47.868;11.892;2023-05-27T12:14:03;6.63;;;5.73;;
5199;SDS011;2619;47.868;11.892;2023-05-27T12:16:29;10.90;;;6.53;;
5199;SDS011;2619;47.868;11.892;2023-05-27T12:18:55;10.07;;;7.00;;
5199;SDS011;2619;47.868;11.892;2023-05-27T12:21:20;8.80;;;6.60;;
5199;SDS011;2619;47.868;11.892;2023-05-27T12:23:46;8.63;;;6.27;;
5199;SDS011;2619;47.868;11.892;2023-05-27T12:26:13;7.33;;;5.77;;
5199;SDS011;2619;47.868;11.892;2023-05-27T12:28:39;9.23;;;6.20;;
5199;SDS011;2619;47.868;11.892;2023-05-27T12:31:06;7.67;;;5.73;;
5199;SDS011;2619;47.868;11.892;2023-05-27T12:33:31;9.07;;;5.70;;
5199;SDS011;2619;47.868;11.892;2023-05-27T12:35:58;9.50;;;5.90;;
5199;SDS011;2619;47.868;11.892;2023-05-27T12:38:24;9.67;;;6.20;;
5199;SDS011;2619;47.868;11.892;2023-05-27T12:40:50;7.60;;;6.20;;
5199;SDS011;2619;47.868;11.892;2023-05-27T12:43:17;50.67;;;24.17;;
5199;SDS011;2619;47.868;11.892;2023-05-27T12:45:43;13.70;;;8.17;;
5199;SDS011;2619;47.868;11.892;2023-05-27T12:48:10;10.00;;;5.50;;
5199;SDS011;2619;47.868;11.892;2023-05-27T12:50:38;49.57;;;19.93;;
5199;SDS011;2619;47.868;11.892;2023-05-27T12:53:04;13.77;;;7.30;;
5199;SDS011;2619;47.868;11.892;2023-05-27T12:55:30;10.37;;;5.50;;
5199;SDS011;2619;47.868;11.892;2023-05-27T12:57:56;7.80;;;5.50;;
5199;SDS011;2619;47.868;11.892;2023-05-27T13:00:22;6.77;;;5.13;;
5199;SDS011;2619;47.868;11.892;2023-05-27T13:02:48;7.00;;;5.43;;
5199;SDS011;2619;47.868;11.892;2023-05-27T13:05:14;8.17;;;5.97;;
5199;SDS011;2619;47.868;11.892;2023-05-27T13:07:41;7.37;;;5.60;;
5199;SDS011;2619;47.868;11.892;2023-05-27T13:10:24;14.27;;;7.83;;
5199;SDS011;2619;47.868;11.892;2023-05-27T13:12:50;12.70;;;7.93;;
5199;SDS011;2619;47.868;11.892;2023-05-27T13:15:16;25.53;;;11.03;;
5199;SDS011;2619;47.868;11.892;2023-05-27T13:17:45;10.90;;;5.77;;
5199;SDS011;2619;47.868;11.892;2023-05-27T13:20:15;9.80;;;5.50;;
5199;SDS011;2619;47.868;11.892;2023-05-27T13:22:41;10.47;;;5.03;;
5199;SDS011;2619;47.868;11.892;2023-05-27T13:25:08;8.27;;;5.13;;
5199;SDS011;2619;47.868;11.892;2023-05-27T13:27:36;8.80;;;5.67;;
5199;SDS011;2619;47.868;11.892;2023-05-27T13:30:01;8.27;;;5.97;;
5199;SDS011;2619;47.868;11.892;2023-05-27T13:32:28;9.23;;;5.83;;
5199;SDS011;2619;47.868;11.892;2023-05-27T13:34:53;6.17;;;5.00;;
5199;SDS011;2619;47.868;11.892;2023-05-27T13:37:20;7.50;;;5.10;;
5199;SDS011;2619;47.868;11.892;2023-05-27T13:39:46;8.50;;;5.50;;
5199;SDS011;2619;47.868;11.892;2023-05-27T13:42:11;7.03;;;5.43;;
5199;SDS011;2619;47.868;11.892;2023-05-27T13:44:37;11.23;;;6.20;;
5199;SDS011;2619;47.868;11.892;2023-05-27T13:47:03;6.83;;;5.20;;
5199;SDS011;2619;47.868;11.892;2023-05-27T13:49:29;6.20;;;4.57;;
5199;SDS011;2619;47.868;11.892;2023-05-27T13:51:54;8.20;;;4.90;;
5199;SDS011;2619;47.868;11.892;2023-05-27T13:54:20;7.60;;;5.00;;
5199;SDS011;2619;47.868;11.892;2023-05-27T13:56:46;7.80;;;4.83;;
5199;SDS011;2619;47.868;11.892;2023-05-27T13:59:11;7.57;;;4.97;;
5199;SDS011;2619;47.868;11.892;2023-05-27T14:01:37;8.37;;;5.37;;
5199;SDS011;2619;47.868;11.892;2023-05-27T14:04:04;9.63;;;5.13;;
5199;SDS011;2619;47.868;11.892;2023-05-27T14:06:30;10.27;;;4.90;;
5199;SDS011;2619;47.868;11.892;2023-05-27T14:08:56;7.70;;;4.27;;
5199;SDS011;2619;47.868;11.892;2023-05-27T14:11:21;7.07;;;4.73;;
5199;SDS011;2619;47.868;11.892;2023-05-27T14:13:47;8.37;;;5.20;;
5199;SDS011;2619;47.868;11.892;2023-05-27T14:16:14;6.70;;;4.67;;
5199;SDS011;2619;47.868;11.892;2023-05-27T14:18:39;7.77;;;6.47;;
5199;SDS011;2619;47.868;11.892;2023-05-27T14:21:06;7.13;;;4.43;;
5199;SDS011;2619;47.868;11.892;2023-05-27T14:23:32;5.83;;;4.30;;
5199;SDS011;2619;47.868;11.892;2023-05-27T14:25:58;8.20;;;4.80;;
5199;SDS011;2619;47.868;11.892;2023-05-27T14:28:24;13.03;;;4.83;;
5199;SDS011;2619;47.868;11.892;2023-05-27T14:30:49;6.80;;;4.30;;
5199;SDS011;2619;47.868;11.892;2023-05-27T14:33:15;7.50;;;5.20;;
5199;SDS011;2619;47.868;11.892;2023-05-27T14:35:41;9.13;;;4.77;;
5199;SDS011;2619;47.868;11.892;2023-05-27T14:38:06;6.03;;;4.40;;
5199;SDS011;2619;47.868;11.892;2023-05-27T14:40:33;8.70;;;4.47;;
5199;SDS011;2619;47.868;11.892;2023-05-27T14:42:59;9.40;;;4.80;;
5199;SDS011;2619;47.868;11.892;2023-05-27T14:45:24;7.53;;;5.00;;
5199;SDS011;2619;47.868;11.892;2023-05-27T14:47:50;7.83;;;4.80;;
5199;SDS011;2619;47.868;11.892;2023-05-27T14:50:16;7.53;;;4.40;;